createdAt,value
2023-02-14T00:00:48.622Z,11.07
2023-02-14T00:03:15.999Z,9.50
2023-02-14T00:05:42.720Z,9.37
2023-02-14T00:08:09.504Z,10.07
2023-02-14T00:10:36.232Z,10.13
2023-02-14T00:13:03.114Z,9.80
2023-02-14T00:15:29.911Z,10.67
2023-02-14T00:17:59.851Z,11.33
2023-02-14T00:20:27.979Z,10.23
2023-02-14T00:22:55.110Z,10.70
2023-02-14T00:25:22.052Z,9.57
2023-02-14T00:27:48.950Z,10.23
2023-02-14T00:30:15.784Z,10.23
2023-02-14T00:32:43.037Z,10.10
2023-02-14T00:35:10.484Z,11.77
2023-02-14T00:37:40.975Z,10.70
2023-02-14T00:40:08.276Z,10.53
2023-02-14T00:42:35.384Z,10.10
2023-02-14T00:45:02.165Z,10.37
2023-02-14T00:47:30.336Z,10.10
2023-02-14T00:50:02.635Z,10.60
2023-02-14T00:52:31.276Z,10.50
2023-02-14T00:54:58.468Z,9.03
2023-02-14T00:57:25.148Z,10.07
2023-02-14T00:59:51.819Z,10.37
2023-02-14T01:02:18.481Z,10.53
2023-02-14T01:04:45.251Z,10.90
2023-02-14T01:07:11.911Z,10.03
2023-02-14T01:09:38.518Z,11.03
2023-02-14T01:12:05.391Z,11.37
2023-02-14T01:14:32.098Z,9.43
2023-02-14T01:16:58.799Z,9.97
2023-02-14T01:19:25.471Z,11.17
2023-02-14T01:21:52.119Z,11.60
2023-02-14T01:24:22.601Z,10.30
2023-02-14T01:26:49.208Z,11.50
2023-02-14T01:29:16.048Z,10.93
2023-02-14T01:31:42.926Z,10.80
2023-02-14T01:34:09.563Z,10.43
2023-02-14T01:36:38.520Z,10.80
2023-02-14T01:39:07.892Z,10.80
2023-02-14T01:41:37.335Z,11.47
2023-02-14T01:44:16.802Z,11.23
2023-02-14T01:46:45.663Z,12.30
2023-02-14T01:49:20.166Z,10.93
2023-02-14T01:51:52.923Z,10.87
2023-02-14T01:54:22.510Z,12.60
2023-02-14T01:56:54.349Z,11.67
2023-02-14T01:59:26.472Z,12.10
2023-02-14T02:01:53.575Z,12.83
2023-02-14T02:04:30.078Z,12.37
2023-02-14T02:07:01.625Z,11.87
2023-02-14T02:09:39.334Z,12.10
2023-02-14T02:12:06.981Z,12.70
2023-02-14T02:14:34.243Z,12.87
2023-02-14T02:17:28.283Z,11.27
2023-02-14T02:20:13.800Z,12.00
2023-02-14T02:22:43.123Z,12.13
2023-02-14T02:25:47.089Z,12.13
2023-02-14T02:28:16.458Z,12.87
2023-02-14T02:31:14.218Z,12.33
2023-02-14T02:34:07.503Z,14.47
2023-02-14T02:36:55.222Z,12.90
2023-02-14T02:39:34.461Z,12.57
2023-02-14T02:42:18.403Z,12.70
2023-02-14T02:44:57.491Z,12.50
2023-02-14T02:47:31.660Z,11.93
2023-02-14T02:50:38.441Z,13.03
2023-02-14T02:53:30.274Z,12.07
2023-02-14T02:56:48.952Z,13.07
2023-02-14T02:59:22.888Z,13.33
2023-02-14T03:02:03.194Z,14.13
2023-02-14T03:04:49.970Z,12.87
2023-02-14T03:07:34.890Z,12.90
2023-02-14T03:10:19.317Z,13.90
2023-02-14T03:13:12.932Z,13.27
2023-02-14T03:15:52.089Z,12.13
2023-02-14T03:19:06.840Z,13.43
2023-02-14T03:21:59.370Z,13.13
2023-02-14T03:24:35.079Z,13.87
2023-02-14T03:27:38.745Z,13.77
2023-02-14T03:30:20.429Z,14.70
2023-02-14T03:33:00.237Z,13.73
2023-02-14T03:35:37.453Z,14.00
2023-02-14T03:38:11.420Z,13.03
2023-02-14T03:40:44.738Z,14.73
2023-02-14T03:43:19.068Z,13.83
2023-02-14T03:45:53.277Z,14.67
2023-02-14T03:48:24.004Z,13.97
2023-02-14T03:50:52.503Z,15.27
2023-02-14T03:53:24.854Z,13.40
2023-02-14T03:55:58.329Z,12.90
2023-02-14T03:58:30.251Z,13.83
2023-02-14T04:01:02.622Z,13.20
2023-02-14T04:03:32.207Z,13.53
2023-02-14T04:05:59.658Z,13.63
2023-02-14T04:08:29.682Z,13.43
2023-02-14T04:11:00.377Z,13.33
2023-02-14T04:13:27.523Z,13.50
2023-02-14T04:15:54.707Z,13.43
2023-02-14T04:18:39.772Z,13.00
2023-02-14T04:21:06.602Z,13.27
2023-02-14T04:23:33.308Z,14.37
2023-02-14T04:25:59.992Z,13.30
2023-02-14T04:28:26.620Z,14.60
2023-02-14T04:30:53.269Z,14.60
2023-02-14T04:33:19.916Z,14.20
2023-02-14T04:35:48.220Z,14.23
2023-02-14T04:38:15.966Z,13.47
2023-02-14T04:40:42.638Z,13.70
2023-02-14T04:43:09.309Z,13.33
2023-02-14T04:45:35.956Z,14.27
2023-02-14T04:48:02.541Z,14.13
2023-02-14T04:50:29.178Z,12.90
2023-02-14T04:52:55.961Z,14.20
2023-02-14T04:55:22.620Z,15.10
2023-02-14T04:57:49.263Z,15.03
2023-02-14T05:00:16.264Z,13.57
2023-02-14T05:02:42.918Z,15.70
2023-02-14T05:05:09.618Z,15.77
2023-02-14T05:07:36.280Z,14.77
2023-02-14T05:10:04.885Z,14.47
2023-02-14T05:12:32.094Z,14.70
2023-02-14T05:14:58.764Z,14.63
2023-02-14T05:17:25.431Z,14.90
2023-02-14T05:19:52.036Z,14.67
2023-02-14T05:22:18.724Z,16.20
2023-02-14T05:24:45.370Z,13.93
2023-02-14T05:27:11.999Z,15.27
2023-02-14T05:29:38.825Z,14.27
2023-02-14T05:32:05.459Z,14.50
2023-02-14T05:34:32.064Z,16.07
2023-02-14T05:36:58.672Z,15.20
2023-02-14T05:39:25.276Z,14.63
2023-02-14T05:41:51.909Z,14.87
2023-02-14T05:44:18.590Z,15.30
2023-02-14T05:46:45.176Z,15.60
2023-02-14T05:49:11.804Z,15.10
2023-02-14T05:51:38.391Z,14.83
2023-02-14T05:54:05.093Z,15.30
2023-02-14T05:56:31.698Z,14.33
2023-02-14T05:58:58.594Z,15.50
2023-02-14T06:01:25.160Z,15.77
2023-02-14T06:03:51.842Z,14.70
2023-02-14T06:06:18.467Z,14.17
2023-02-14T06:08:45.120Z,13.70
2023-02-14T06:11:11.834Z,14.17
2023-02-14T06:13:40.317Z,14.77
2023-02-14T06:16:07.069Z,13.40
2023-02-14T06:18:33.702Z,14.07
2023-02-14T06:21:00.733Z,14.57
2023-02-14T06:23:27.635Z,12.87
2023-02-14T06:25:54.330Z,14.80
2023-02-14T06:28:21.302Z,14.33
2023-02-14T06:30:47.999Z,14.40
2023-02-14T06:33:14.687Z,14.10
2023-02-14T06:35:41.463Z,14.10
2023-02-14T06:38:08.160Z,14.37
2023-02-14T06:40:34.831Z,14.77
2023-02-14T06:43:01.443Z,14.50
2023-02-14T06:45:28.050Z,14.20
2023-02-14T06:47:54.714Z,13.63
2023-02-14T06:50:21.335Z,13.83
2023-02-14T06:52:48.277Z,13.60
2023-02-14T06:55:14.954Z,13.53
2023-02-14T06:57:41.675Z,14.73
2023-02-14T07:00:10.072Z,13.90
2023-02-14T07:02:36.976Z,13.87
2023-02-14T07:05:04.382Z,14.80
2023-02-14T07:07:31.325Z,13.97
2023-02-14T07:09:57.983Z,14.23
2023-02-14T07:12:24.579Z,13.07
2023-02-14T07:14:51.219Z,14.33
2023-02-14T07:17:17.847Z,15.43
2023-02-14T07:19:44.426Z,13.63
2023-02-14T07:22:11.085Z,13.47
2023-02-14T07:24:37.709Z,13.20
2023-02-14T07:27:04.370Z,14.80
2023-02-14T07:29:30.972Z,13.93
2023-02-14T07:31:57.962Z,12.63
2023-02-14T07:34:24.716Z,11.87
2023-02-14T07:36:51.371Z,12.83
2023-02-14T07:39:17.984Z,13.93
2023-02-14T07:41:44.566Z,14.17
2023-02-14T07:44:11.679Z,13.90
2023-02-14T07:46:38.365Z,14.17
2023-02-14T07:49:04.998Z,15.10
2023-02-14T07:51:31.603Z,15.00
2023-02-14T07:53:58.305Z,16.30
2023-02-14T07:56:24.935Z,14.73
2023-02-14T07:58:51.616Z,14.33
2023-02-14T08:01:18.513Z,14.77
2023-02-14T08:03:49.222Z,14.93
2023-02-14T08:06:17.461Z,15.27
2023-02-14T08:08:45.980Z,14.70
2023-02-14T08:11:33.309Z,14.90
2023-02-14T08:13:59.898Z,14.53
2023-02-14T08:16:26.720Z,14.67
2023-02-14T08:18:53.381Z,15.30
2023-02-14T08:21:21.088Z,15.50
2023-02-14T08:23:47.742Z,15.03
2023-02-14T08:26:14.614Z,15.77
2023-02-14T08:28:41.323Z,16.33
2023-02-14T08:31:08.006Z,17.53
2023-02-14T08:33:34.714Z,16.30
2023-02-14T08:36:01.527Z,16.33
2023-02-14T08:38:29.531Z,15.90
2023-02-14T08:41:01.820Z,16.00
2023-02-14T08:43:29.305Z,16.63
2023-02-14T08:45:56.044Z,17.33
2023-02-14T08:48:23.496Z,16.70
2023-02-14T08:50:50.568Z,17.40
2023-02-14T08:53:17.250Z,17.37
2023-02-14T08:55:43.921Z,17.53
2023-02-14T08:58:10.845Z,16.80
2023-02-14T09:00:37.510Z,18.37
2023-02-14T09:03:04.402Z,19.07
2023-02-14T09:05:31.158Z,19.27
2023-02-14T09:07:57.829Z,20.07
2023-02-14T09:10:25.407Z,21.50
2023-02-14T09:12:52.660Z,20.13
2023-02-14T09:15:19.931Z,18.40
2023-02-14T09:17:47.603Z,19.90
2023-02-14T09:20:16.048Z,19.47
2023-02-14T09:22:43.480Z,18.30
2023-02-14T09:25:11.179Z,19.23
2023-02-14T09:27:37.891Z,20.53
2023-02-14T09:30:06.711Z,20.50
2023-02-14T09:32:33.884Z,20.17
2023-02-14T09:35:19.823Z,19.77
2023-02-14T09:38:05.398Z,18.83
2023-02-14T09:40:33.145Z,18.70
2023-02-14T09:43:07.306Z,19.17
2023-02-14T09:45:34.557Z,18.13
2023-02-14T09:48:07.569Z,19.23
2023-02-14T09:50:43.946Z,19.27
2023-02-14T09:53:33.166Z,16.50
2023-02-14T09:56:25.701Z,16.93
2023-02-14T09:59:07.605Z,13.97
2023-02-14T10:01:42.671Z,14.17
2023-02-14T10:04:31.073Z,15.13
2023-02-14T10:07:22.431Z,16.47
2023-02-14T10:10:11.684Z,14.40
2023-02-14T10:12:52.970Z,14.20
2023-02-14T10:15:32.379Z,14.73
2023-02-14T10:18:05.937Z,15.47
2023-02-14T10:20:38.776Z,15.50
2023-02-14T10:23:34.489Z,15.67
2023-02-14T10:26:04.344Z,14.97
2023-02-14T10:28:40.069Z,14.60
2023-02-14T10:31:23.964Z,13.37
2023-02-14T10:33:57.542Z,13.70
2023-02-14T10:36:48.176Z,13.10
2023-02-14T10:39:31.692Z,15.50
2023-02-14T10:42:09.530Z,14.50
2023-02-14T10:44:47.724Z,13.37
2023-02-14T10:47:24.336Z,15.53
2023-02-14T10:50:09.886Z,15.43
2023-02-14T10:52:44.714Z,15.33
2023-02-14T10:55:32.337Z,14.43
2023-02-14T10:58:02.979Z,15.80
2023-02-14T11:00:41.143Z,15.97
2023-02-14T11:03:10.793Z,16.23
2023-02-14T11:05:48.281Z,16.87
2023-02-14T11:08:38.803Z,15.73
2023-02-14T11:11:16.438Z,18.97
2023-02-14T11:13:43.270Z,19.70
2023-02-14T11:16:13.001Z,17.43
2023-02-14T11:18:41.137Z,16.53
2023-02-14T11:21:13.935Z,19.00
2023-02-14T11:23:46.223Z,19.57
2023-02-14T11:26:26.842Z,20.03
2023-02-14T11:29:00.244Z,29.47
2023-02-14T11:31:30.301Z,23.17
2023-02-14T11:33:58.584Z,19.47
2023-02-14T11:36:27.604Z,20.17
2023-02-14T11:39:21.850Z,19.07
2023-02-14T11:41:56.063Z,17.93
2023-02-14T11:44:26.180Z,20.30
2023-02-14T11:46:55.902Z,19.70
2023-02-14T11:49:28.386Z,19.30
2023-02-14T11:51:57.089Z,20.80
2023-02-14T11:54:34.829Z,20.57
2023-02-14T11:57:05.999Z,21.70
2023-02-14T11:59:37.204Z,20.43
2023-02-14T12:02:28.735Z,19.80
2023-02-14T12:05:27.237Z,20.67
2023-02-14T12:07:57.198Z,20.10
2023-02-14T12:10:28.963Z,19.60
2023-02-14T12:12:59.720Z,18.93
2023-02-14T12:15:28.492Z,21.97
2023-02-14T12:18:37.150Z,21.30
2023-02-14T12:21:21.550Z,18.70
2023-02-14T12:24:00.498Z,19.30
2023-02-14T12:27:05.549Z,19.47
2023-02-14T12:29:39.412Z,20.50
2023-02-14T12:32:18.400Z,19.03
2023-02-14T12:34:45.502Z,19.23
2023-02-14T12:37:38.012Z,19.07
2023-02-14T12:40:19.566Z,18.80
2023-02-14T12:42:55.251Z,19.50
2023-02-14T12:45:27.057Z,19.70
2023-02-14T12:48:06.117Z,19.77
2023-02-14T12:50:55.905Z,18.27
2023-02-14T12:53:38.331Z,18.87
2023-02-14T12:56:19.271Z,18.53
2023-02-14T12:58:58.067Z,18.30
2023-02-14T13:01:49.754Z,17.73
2023-02-14T13:04:48.176Z,21.80
2023-02-14T13:08:00.374Z,21.07
2023-02-14T13:10:45.403Z,23.30
2023-02-14T13:13:38.064Z,23.67
2023-02-14T13:16:23.651Z,22.30
2023-02-14T13:19:19.006Z,22.73
2023-02-14T13:21:47.533Z,21.93
2023-02-14T13:24:25.011Z,20.83
2023-02-14T13:26:56.575Z,21.47
2023-02-14T13:29:25.776Z,19.97
2023-02-14T13:31:58.528Z,22.67
2023-02-14T13:34:39.075Z,20.93
2023-02-14T13:37:10.432Z,21.63
2023-02-14T13:39:45.253Z,20.37
2023-02-14T13:42:12.980Z,19.93
2023-02-14T13:44:52.660Z,19.63
2023-02-14T13:47:22.102Z,20.43
2023-02-14T13:49:55.735Z,19.63
2023-02-14T13:52:42.918Z,19.97
2023-02-14T13:55:17.398Z,20.87
2023-02-14T13:57:45.158Z,25.27
2023-02-14T14:00:17.590Z,32.03
2023-02-14T14:02:48.916Z,32.33
2023-02-14T14:05:30.877Z,27.03
2023-02-14T14:08:36.562Z,23.43
2023-02-14T14:11:10.223Z,23.90
2023-02-14T14:13:39.895Z,23.13
2023-02-14T14:16:29.521Z,23.53
2023-02-14T14:18:56.301Z,23.33
2023-02-14T14:21:28.761Z,23.77
2023-02-14T14:24:20.578Z,24.83
2023-02-14T14:27:08.099Z,22.00
2023-02-14T14:29:41.161Z,20.40
2023-02-14T14:32:10.139Z,21.83
2023-02-14T14:34:37.149Z,21.40
2023-02-14T14:37:15.519Z,21.43
2023-02-14T14:39:42.255Z,22.07
2023-02-14T14:42:16.884Z,22.67
2023-02-14T14:44:55.979Z,22.00
2023-02-14T14:47:29.394Z,20.93
2023-02-14T14:50:10.162Z,21.10
2023-02-14T14:52:41.801Z,21.07
2023-02-14T14:55:16.011Z,20.50
2023-02-14T14:57:50.273Z,20.70
2023-02-14T15:00:24.929Z,21.27
2023-02-14T15:03:02.907Z,21.53
2023-02-14T15:05:44.327Z,20.13
2023-02-14T15:08:23.155Z,20.20
2023-02-14T15:10:57.919Z,20.47
2023-02-14T15:13:54.977Z,21.97
2023-02-14T15:16:26.212Z,21.37
2023-02-14T15:19:01.006Z,21.43
2023-02-14T15:21:28.551Z,20.43
2023-02-14T15:23:55.795Z,21.33
2023-02-14T15:26:32.459Z,20.50
2023-02-14T15:29:06.297Z,20.40
2023-02-14T15:31:38.347Z,20.93
2023-02-14T15:34:06.582Z,20.03
2023-02-14T15:36:35.265Z,21.70
2023-02-14T15:39:06.596Z,20.67
2023-02-14T15:41:33.908Z,21.87
2023-02-14T15:44:01.671Z,20.77
2023-02-14T15:46:37.119Z,26.40
2023-02-14T15:49:15.479Z,22.67
2023-02-14T15:51:43.292Z,24.77
2023-02-14T15:54:31.858Z,25.73
2023-02-14T15:56:58.945Z,23.30
2023-02-14T15:59:31.316Z,22.00
2023-02-14T16:02:06.130Z,21.63
2023-02-14T16:04:35.487Z,23.83
2023-02-14T16:07:23.764Z,26.80
2023-02-14T16:10:11.900Z,21.77
2023-02-14T16:12:42.094Z,21.40
2023-02-14T16:15:21.991Z,20.90
2023-02-14T16:17:49.522Z,22.87
2023-02-14T16:20:23.152Z,22.40
2023-02-14T16:22:50.583Z,20.87
2023-02-14T16:25:18.248Z,22.57
2023-02-14T16:27:46.049Z,19.63
2023-02-14T16:30:19.406Z,20.67
2023-02-14T16:32:51.621Z,21.87
2023-02-14T16:35:21.396Z,21.10
2023-02-14T16:37:50.776Z,21.50
2023-02-14T16:40:21.348Z,21.03
2023-02-14T16:42:48.392Z,21.37
2023-02-14T16:45:18.124Z,22.07
2023-02-14T16:47:49.217Z,22.03
2023-02-14T16:50:17.595Z,21.73
2023-02-14T16:52:47.616Z,24.10
2023-02-14T16:55:17.681Z,21.73
2023-02-14T16:57:47.628Z,21.47
2023-02-14T17:00:14.948Z,22.17
2023-02-14T17:02:44.184Z,20.83
2023-02-14T17:05:11.705Z,20.67
2023-02-14T17:07:41.863Z,21.63
2023-02-14T17:10:18.060Z,22.83
2023-02-14T17:12:47.268Z,22.87
2023-02-14T17:15:18.504Z,22.27
2023-02-14T17:17:47.441Z,21.10
2023-02-14T17:20:15.821Z,21.10
2023-02-14T17:22:42.595Z,23.60
2023-02-14T17:25:09.581Z,23.80
2023-02-14T17:27:36.799Z,21.63
2023-02-14T17:30:04.607Z,23.70
2023-02-14T17:32:35.117Z,25.63
2023-02-14T17:35:03.464Z,26.07
2023-02-14T17:37:31.991Z,24.57
2023-02-14T17:39:58.638Z,24.03
2023-02-14T17:42:25.361Z,22.27
2023-02-14T17:44:52.500Z,23.93
2023-02-14T17:47:19.710Z,22.90
2023-02-14T17:49:47.393Z,25.83
2023-02-14T17:52:15.639Z,24.73
2023-02-14T17:54:42.744Z,27.90
2023-02-14T17:57:09.955Z,30.90
2023-02-14T17:59:36.743Z,29.40
2023-02-14T18:02:03.693Z,29.90
2023-02-14T18:04:30.487Z,28.93
2023-02-14T18:06:57.335Z,26.17
2023-02-14T18:09:25.666Z,27.30
2023-02-14T18:11:52.536Z,28.03
2023-02-14T18:14:19.485Z,26.57
2023-02-14T18:16:46.359Z,27.27
2023-02-14T18:19:15.838Z,25.43
2023-02-14T18:21:44.651Z,26.10
2023-02-14T18:24:12.377Z,27.93
2023-02-14T18:26:40.595Z,27.73
2023-02-14T18:29:12.208Z,27.40
2023-02-14T18:31:41.780Z,26.70
2023-02-14T18:34:09.656Z,26.20
2023-02-14T18:36:38.504Z,25.40
2023-02-14T18:39:06.494Z,24.63
2023-02-14T18:41:33.431Z,25.80
2023-02-14T18:44:01.089Z,25.80
2023-02-14T18:46:31.295Z,26.83
2023-02-14T18:48:57.932Z,25.63
2023-02-14T18:51:27.684Z,29.10
2023-02-14T18:53:56.662Z,27.33
2023-02-14T18:56:29.768Z,29.23
2023-02-14T18:59:00.890Z,27.77
2023-02-14T19:01:33.133Z,28.07
2023-02-14T19:04:01.070Z,27.50
2023-02-14T19:06:30.041Z,25.37
2023-02-14T19:08:57.540Z,25.03
2023-02-14T19:11:28.068Z,27.07
2023-02-14T19:13:56.872Z,27.57
2023-02-14T19:16:29.496Z,25.30
2023-02-14T19:18:56.314Z,27.50
2023-02-14T19:21:30.341Z,26.03
2023-02-14T19:23:57.858Z,24.67
2023-02-14T19:26:32.712Z,25.43
2023-02-14T19:29:01.899Z,25.57
2023-02-14T19:31:29.362Z,25.63
2023-02-14T19:33:56.609Z,24.67
2023-02-14T19:36:24.336Z,26.57
2023-02-14T19:38:53.412Z,26.57
2023-02-14T19:41:25.742Z,25.97
2023-02-14T19:43:55.099Z,25.57
2023-02-14T19:46:21.942Z,25.27
2023-02-14T19:48:49.015Z,24.10
2023-02-14T19:51:22.150Z,26.00
2023-02-14T19:53:50.060Z,27.90
2023-02-14T19:56:22.363Z,29.33
2023-02-14T19:58:50.798Z,26.77
2023-02-14T20:01:36.303Z,26.17
2023-02-14T20:04:07.531Z,27.93
2023-02-14T20:06:34.373Z,26.47
2023-02-14T20:09:02.050Z,29.47
2023-02-14T20:11:36.238Z,27.37
2023-02-14T20:14:03.671Z,28.07
2023-02-14T20:16:32.761Z,29.33
2023-02-14T20:19:05.135Z,27.83
2023-02-14T20:21:31.910Z,26.80
2023-02-14T20:24:01.909Z,25.97
2023-02-14T20:26:30.765Z,26.83
2023-02-14T20:29:03.723Z,25.87
2023-02-14T20:31:32.132Z,24.87
2023-02-14T20:33:59.692Z,25.83
2023-02-14T20:36:26.626Z,26.80
2023-02-14T20:39:13.121Z,24.90
2023-02-14T20:41:40.248Z,24.83
2023-02-14T20:44:09.977Z,26.43
2023-02-14T20:46:36.761Z,25.77
2023-02-14T20:49:03.961Z,24.33
2023-02-14T20:51:30.866Z,24.93
2023-02-14T20:53:57.532Z,25.47
2023-02-14T20:56:24.302Z,24.00
2023-02-14T20:58:51.305Z,23.60
2023-02-14T21:01:21.239Z,25.43
2023-02-14T21:03:52.886Z,24.00
2023-02-14T21:06:22.687Z,26.40
2023-02-14T21:08:50.213Z,26.20
2023-02-14T21:11:19.907Z,23.27
2023-02-14T21:13:46.672Z,25.30
2023-02-14T21:16:16.613Z,25.37
2023-02-14T21:18:51.590Z,23.23
2023-02-14T21:21:20.578Z,28.07
2023-02-14T21:23:52.117Z,23.93
2023-02-14T21:26:20.058Z,22.43
2023-02-14T21:28:47.511Z,24.27
2023-02-14T21:31:17.622Z,22.27
2023-02-14T21:33:44.235Z,23.00
2023-02-14T21:36:14.239Z,23.17
2023-02-14T21:38:43.345Z,21.93
2023-02-14T21:41:18.669Z,25.33
2023-02-14T21:43:47.649Z,27.40
2023-02-14T21:46:17.262Z,30.07
2023-02-14T21:49:03.487Z,25.90
2023-02-14T21:51:31.399Z,25.53
2023-02-14T21:54:01.473Z,27.13
2023-02-14T21:56:28.634Z,23.70
2023-02-14T21:58:56.237Z,22.60
2023-02-14T22:01:26.203Z,22.07
2023-02-14T22:03:53.464Z,23.63
2023-02-14T22:06:21.297Z,23.83
2023-02-14T22:08:56.013Z,24.63
2023-02-14T22:11:26.554Z,23.93
2023-02-14T22:13:53.407Z,23.73
2023-02-14T22:16:21.805Z,24.27
2023-02-14T22:18:49.059Z,22.93
2023-02-14T22:21:19.687Z,22.50
2023-02-14T22:23:46.998Z,25.40
2023-02-14T22:26:25.857Z,25.00
2023-02-14T22:28:56.869Z,27.13
2023-02-14T22:31:25.345Z,22.80
2023-02-14T22:33:52.750Z,25.23
2023-02-14T22:36:20.214Z,25.30
2023-02-14T22:38:47.177Z,24.27
2023-02-14T22:41:19.309Z,25.50
2023-02-14T22:43:46.537Z,25.07
2023-02-14T22:46:19.728Z,22.10
2023-02-14T22:48:48.135Z,23.20
2023-02-14T22:51:23.973Z,25.73
2023-02-14T22:53:52.983Z,22.37
2023-02-14T22:56:23.406Z,23.10
2023-02-14T22:58:57.573Z,21.20
2023-02-14T23:01:24.931Z,23.97
2023-02-14T23:03:56.955Z,22.07
2023-02-14T23:06:28.607Z,22.57
2023-02-14T23:08:56.011Z,22.63
2023-02-14T23:11:28.608Z,21.80
2023-02-14T23:14:14.563Z,22.07
2023-02-14T23:17:00.330Z,20.97
2023-02-14T23:19:49.048Z,21.50
2023-02-14T23:22:27.711Z,22.33
2023-02-14T23:24:59.603Z,21.97
2023-02-14T23:27:36.014Z,22.17
2023-02-14T23:30:05.508Z,22.63
2023-02-14T23:32:32.375Z,22.53
2023-02-14T23:34:58.957Z,21.73
2023-02-14T23:37:25.804Z,22.30
2023-02-14T23:39:52.586Z,20.83
2023-02-14T23:42:19.231Z,19.77
2023-02-14T23:44:46.814Z,21.53
2023-02-14T23:47:14.560Z,21.10
2023-02-14T23:49:41.956Z,21.43
2023-02-14T23:52:11.523Z,19.77
2023-02-14T23:54:38.959Z,21.07
2023-02-14T23:57:07.307Z,21.23
2023-02-14T23:59:35.376Z,21.43
